createdAt,value
2019-04-16T00:00:51.441Z,7.20
2019-04-16T00:01:51.408Z,6.90
2019-04-16T00:02:52.193Z,7.10
2019-04-16T00:03:53.806Z,7.80
2019-04-16T00:04:53.655Z,7.10
2019-04-16T00:05:51.281Z,7.00
2019-04-16T00:06:51.250Z,6.60
2019-04-16T00:07:51.216Z,7.30
2019-04-16T00:08:51.187Z,7.60
2019-04-16T00:09:51.153Z,7.10
2019-04-16T00:10:51.119Z,7.30
2019-04-16T00:11:51.093Z,6.80
2019-04-16T00:12:51.062Z,7.20
2019-04-16T00:13:51.029Z,7.00
2019-04-16T00:14:50.992Z,7.30
2019-04-16T00:15:50.961Z,7.40
2019-04-16T00:16:50.946Z,7.10
2019-04-16T00:17:50.898Z,7.60
2019-04-16T00:18:57.905Z,7.20
2019-04-16T00:19:50.831Z,7.60
2019-04-16T00:20:50.799Z,7.70
2019-04-16T00:21:50.766Z,7.80
2019-04-16T00:22:50.740Z,7.60
2019-04-16T00:23:50.708Z,7.30
2019-04-16T00:24:50.671Z,7.30
2019-04-16T00:25:52.050Z,7.40
2019-04-16T00:26:50.604Z,7.00
2019-04-16T00:27:50.575Z,7.30
2019-04-16T00:28:50.541Z,7.70
2019-04-16T00:29:50.509Z,7.60
2019-04-16T00:30:50.476Z,7.40
2019-04-16T00:31:50.457Z,7.30
2019-04-16T00:32:50.411Z,6.90
2019-04-16T00:33:50.380Z,7.90
2019-04-16T00:34:50.349Z,7.30
2019-04-16T00:35:50.315Z,7.30
2019-04-16T00:36:50.285Z,7.20
2019-04-16T00:37:51.670Z,7.00
2019-04-16T00:38:53.831Z,7.40
2019-04-16T00:39:50.185Z,7.40
2019-04-16T00:40:50.154Z,7.60
2019-04-16T00:41:50.124Z,7.50
2019-04-16T00:42:50.089Z,7.80
2019-04-16T00:43:50.060Z,7.80
2019-04-16T00:44:50.027Z,7.80
2019-04-16T00:45:49.994Z,7.40
2019-04-16T00:46:49.963Z,7.10
2019-04-16T00:47:51.455Z,7.20
2019-04-16T00:48:49.930Z,7.80
2019-04-16T00:49:49.863Z,7.50
2019-04-16T00:50:49.830Z,6.90
2019-04-16T00:51:49.806Z,7.20
2019-04-16T00:52:49.765Z,6.70
2019-04-16T00:53:49.737Z,7.60
2019-04-16T00:54:49.703Z,7.70
2019-04-16T00:55:49.668Z,7.60
2019-04-16T00:56:49.639Z,7.80
2019-04-16T00:57:49.607Z,7.50
2019-04-16T00:58:52.219Z,7.10
2019-04-16T00:59:49.545Z,7.60
2019-04-16T01:00:49.507Z,7.00
2019-04-16T01:01:49.475Z,7.80
2019-04-16T01:02:49.443Z,6.90
2019-04-16T01:03:49.408Z,7.40
2019-04-16T01:04:49.375Z,7.40
2019-04-16T01:05:49.346Z,7.30
2019-04-16T01:06:49.311Z,7.30
2019-04-16T01:07:49.281Z,7.40
2019-04-16T01:08:54.936Z,7.50
2019-04-16T01:09:49.215Z,7.00
2019-04-16T01:10:49.187Z,7.60
2019-04-16T01:11:49.746Z,7.00
2019-04-16T01:12:49.117Z,7.60
2019-04-16T01:13:49.084Z,7.40
2019-04-16T01:14:49.054Z,7.40
2019-04-16T01:15:49.022Z,8.40
2019-04-16T01:16:48.990Z,8.00
2019-04-16T01:17:48.954Z,8.20
2019-04-16T01:18:48.920Z,7.60
2019-04-16T01:19:48.889Z,7.20
2019-04-16T01:20:48.870Z,7.30
2019-04-16T01:21:48.823Z,7.50
2019-04-16T01:22:48.793Z,7.50
2019-04-16T01:23:49.575Z,8.20
2019-04-16T01:24:51.749Z,7.70
2019-04-16T01:25:48.694Z,7.20
2019-04-16T01:26:48.660Z,7.60
2019-04-16T01:27:48.631Z,7.80
2019-04-16T01:28:48.597Z,7.00
2019-04-16T01:29:48.563Z,7.50
2019-04-16T01:30:48.533Z,8.00
2019-04-16T01:31:48.497Z,7.60
2019-04-16T01:32:48.465Z,7.80
2019-04-16T01:33:48.434Z,8.40
2019-04-16T01:34:48.511Z,7.40
2019-04-16T01:35:51.508Z,7.20
2019-04-16T01:36:48.336Z,7.10
2019-04-16T01:37:48.304Z,8.00
2019-04-16T01:38:48.270Z,8.10
2019-04-16T01:39:48.330Z,8.10
2019-04-16T01:40:50.123Z,8.20
2019-04-16T01:41:50.312Z,8.70
2019-04-16T01:42:48.138Z,7.40
2019-04-16T01:43:48.108Z,7.80
2019-04-16T01:44:48.074Z,8.20
2019-04-16T01:45:48.042Z,7.20
2019-04-16T01:46:48.009Z,7.20
2019-04-16T01:47:47.975Z,7.50
2019-04-16T01:48:47.943Z,8.10
2019-04-16T01:49:47.911Z,7.20
2019-04-16T01:50:47.878Z,8.40
2019-04-16T01:51:48.137Z,8.00
2019-04-16T01:52:50.321Z,7.70
2019-04-16T01:53:49.486Z,7.50
2019-04-16T01:54:47.747Z,7.80
2019-04-16T01:55:47.713Z,7.30
2019-04-16T01:56:47.682Z,8.10
2019-04-16T01:57:47.651Z,7.80
2019-04-16T01:58:47.616Z,7.40
2019-04-16T01:59:47.588Z,7.40
2019-04-16T02:00:47.570Z,7.70
2019-04-16T02:01:47.519Z,7.60
2019-04-16T02:02:47.492Z,7.60
2019-04-16T02:03:48.896Z,8.30
2019-04-16T02:04:48.458Z,7.90
2019-04-16T02:05:47.388Z,8.20
2019-04-16T02:06:47.352Z,8.20
2019-04-16T02:07:47.322Z,8.50
2019-04-16T02:08:47.289Z,8.50
2019-04-16T02:09:47.255Z,8.40
2019-04-16T02:10:47.229Z,8.10
2019-04-16T02:11:47.191Z,7.80
2019-04-16T02:12:47.165Z,7.50
2019-04-16T02:13:47.129Z,8.30
2019-04-16T02:14:47.368Z,8.20
2019-04-16T02:15:47.058Z,7.90
2019-04-16T02:16:47.028Z,7.80
2019-04-16T02:17:46.997Z,7.80
2019-04-16T02:18:46.961Z,7.90
2019-04-16T02:19:46.930Z,9.10
2019-04-16T02:20:46.895Z,8.60
2019-04-16T02:21:46.862Z,8.80
2019-04-16T02:22:46.835Z,8.40
2019-04-16T02:23:48.096Z,8.50
2019-04-16T02:24:47.788Z,7.80
2019-04-16T02:25:48.552Z,8.20
2019-04-16T02:26:46.850Z,8.30
2019-04-16T02:27:46.667Z,8.10
2019-04-16T02:28:46.630Z,8.10
2019-04-16T02:29:46.599Z,8.70
2019-04-16T02:30:46.570Z,9.20
2019-04-16T02:31:47.877Z,9.30
2019-04-16T02:32:46.500Z,9.10
2019-04-16T02:33:46.466Z,8.70
2019-04-16T02:34:46.433Z,8.80
2019-04-16T02:35:46.402Z,9.10
2019-04-16T02:36:46.367Z,9.80
2019-04-16T02:37:46.344Z,8.80
2019-04-16T02:38:52.517Z,8.20
2019-04-16T02:39:48.260Z,8.30
2019-04-16T02:40:51.666Z,8.40
2019-04-16T02:41:46.204Z,9.30
2019-04-16T02:42:46.181Z,8.40
2019-04-16T02:43:46.158Z,8.70
2019-04-16T02:44:49.834Z,8.70
2019-04-16T02:45:46.071Z,9.10
2019-04-16T02:46:46.036Z,8.40
2019-04-16T02:47:46.010Z,8.90
2019-04-16T02:48:49.993Z,9.80
2019-04-16T02:49:45.942Z,9.40
2019-04-16T02:50:45.913Z,9.10
2019-04-16T02:51:45.871Z,8.70
2019-04-16T02:52:50.218Z,8.70
2019-04-16T02:53:45.808Z,9.40
2019-04-16T02:54:45.783Z,8.40
2019-04-16T02:55:45.739Z,9.00
2019-04-16T02:56:51.702Z,9.20
2019-04-16T02:57:45.875Z,8.80
2019-04-16T02:58:45.641Z,8.50
2019-04-16T02:59:47.415Z,9.10
2019-04-16T03:00:49.121Z,8.60
2019-04-16T03:01:45.541Z,8.70
2019-04-16T03:02:45.505Z,8.80
2019-04-16T03:03:45.475Z,9.60
2019-04-16T03:04:45.443Z,9.20
2019-04-16T03:05:45.410Z,8.90
2019-04-16T03:06:45.381Z,10.00
2019-04-16T03:07:45.344Z,9.50
2019-04-16T03:08:45.308Z,9.00
2019-04-16T03:09:45.275Z,8.80
2019-04-16T03:10:45.406Z,9.10
2019-04-16T03:11:45.560Z,9.40
2019-04-16T03:12:45.176Z,9.00
2019-04-16T03:13:45.143Z,9.80
2019-04-16T03:14:45.112Z,9.40
2019-04-16T03:15:45.076Z,9.60
2019-04-16T03:16:45.046Z,9.10
2019-04-16T03:17:45.010Z,8.40
2019-04-16T03:18:47.365Z,9.00
2019-04-16T03:19:44.944Z,8.70
2019-04-16T03:20:44.909Z,8.80
2019-04-16T03:21:44.878Z,8.60
2019-04-16T03:22:44.842Z,9.20
2019-04-16T03:23:44.809Z,9.30
2019-04-16T03:24:44.777Z,9.90
2019-04-16T03:25:45.186Z,9.30
2019-04-16T03:26:47.586Z,8.80
2019-04-16T03:27:44.677Z,8.40
2019-04-16T03:28:44.648Z,9.40
2019-04-16T03:29:44.612Z,8.50
2019-04-16T03:30:44.578Z,8.70
2019-04-16T03:31:44.545Z,9.30
2019-04-16T03:32:44.517Z,9.30
2019-04-16T03:33:50.465Z,10.10
2019-04-16T03:34:44.445Z,8.70
2019-04-16T03:35:44.410Z,9.20
2019-04-16T03:36:44.383Z,9.30
2019-04-16T03:37:44.347Z,9.30
2019-04-16T03:38:44.324Z,9.30
2019-04-16T03:39:45.013Z,8.90
2019-04-16T03:40:44.244Z,9.60
2019-04-16T03:41:44.211Z,8.90
2019-04-16T03:42:44.179Z,9.50
2019-04-16T03:43:44.143Z,9.30
2019-04-16T03:44:44.110Z,9.40
2019-04-16T03:45:44.078Z,9.60
2019-04-16T03:46:46.895Z,9.50
2019-04-16T03:47:44.011Z,9.40
2019-04-16T03:48:43.979Z,9.80
2019-04-16T03:49:43.944Z,9.90
2019-04-16T03:50:43.911Z,9.30
2019-04-16T03:51:43.878Z,8.90
2019-04-16T03:52:45.751Z,9.20
2019-04-16T03:53:46.550Z,9.20
2019-04-16T03:54:43.776Z,9.10
2019-04-16T03:55:43.752Z,9.60
2019-04-16T03:56:43.713Z,9.50
2019-04-16T03:57:43.677Z,9.70
2019-04-16T03:58:43.644Z,9.80
2019-04-16T03:59:43.613Z,9.10
2019-04-16T04:00:44.285Z,9.30
2019-04-16T04:01:46.039Z,9.80
2019-04-16T04:02:43.512Z,10.10
2019-04-16T04:03:43.476Z,9.90
2019-04-16T04:04:43.444Z,9.40
2019-04-16T04:05:43.414Z,9.90
2019-04-16T04:06:43.377Z,10.40
2019-04-16T04:07:44.113Z,9.90
2019-04-16T04:08:47.883Z,10.30
2019-04-16T04:09:43.279Z,9.70
2019-04-16T04:10:43.243Z,9.70
2019-04-16T04:11:43.209Z,9.30
2019-04-16T04:12:45.699Z,9.80
2019-04-16T04:13:43.143Z,9.70
2019-04-16T04:14:43.110Z,10.70
2019-04-16T04:15:43.077Z,11.30
2019-04-16T04:16:43.045Z,10.80
2019-04-16T04:17:43.011Z,10.20
2019-04-16T04:18:43.869Z,9.50
2019-04-16T04:19:43.474Z,10.10
2019-04-16T04:20:42.911Z,10.50
2019-04-16T04:21:42.882Z,9.60
2019-04-16T04:22:42.849Z,10.00
2019-04-16T04:23:42.810Z,10.10
2019-04-16T04:24:42.777Z,9.30
2019-04-16T04:25:42.754Z,10.40
2019-04-16T04:26:42.710Z,10.40
2019-04-16T04:27:43.564Z,10.40
2019-04-16T04:28:42.643Z,9.90
2019-04-16T04:29:42.611Z,9.40
2019-04-16T04:30:42.575Z,9.10
2019-04-16T04:31:42.544Z,9.90
2019-04-16T04:32:42.512Z,9.50
2019-04-16T04:33:43.080Z,9.90
2019-04-16T04:34:42.444Z,10.30
2019-04-16T04:35:42.412Z,9.70
2019-04-16T04:36:42.376Z,10.40
2019-04-16T04:37:42.344Z,10.20
2019-04-16T04:38:42.311Z,9.70
2019-04-16T04:39:44.263Z,10.20
2019-04-16T04:40:44.805Z,9.50
2019-04-16T04:41:42.211Z,9.70
2019-04-16T04:42:42.177Z,9.30
2019-04-16T04:43:42.150Z,10.70
2019-04-16T04:44:42.113Z,9.50
2019-04-16T04:45:42.079Z,10.00
2019-04-16T04:46:43.187Z,10.90
2019-04-16T04:47:42.012Z,10.30
2019-04-16T04:48:41.984Z,10.30
2019-04-16T04:49:41.946Z,10.20
2019-04-16T04:50:41.916Z,9.50
2019-04-16T04:51:43.452Z,9.20
2019-04-16T04:52:43.196Z,10.80
2019-04-16T04:53:41.816Z,9.90
2019-04-16T04:54:41.785Z,9.40
2019-04-16T04:55:41.748Z,10.00
2019-04-16T04:56:41.717Z,9.80
2019-04-16T04:57:41.683Z,9.60
2019-04-16T04:58:41.651Z,9.50
2019-04-16T04:59:41.620Z,10.00
2019-04-16T05:00:41.584Z,9.90
2019-04-16T05:01:42.606Z,9.80
2019-04-16T05:02:43.764Z,10.20
2019-04-16T05:03:41.493Z,10.20
2019-04-16T05:04:41.455Z,10.70
2019-04-16T05:05:41.427Z,10.10
2019-04-16T05:06:41.388Z,9.80
2019-04-16T05:07:41.356Z,9.20
2019-04-16T05:08:41.322Z,9.40
2019-04-16T05:09:41.291Z,10.00
2019-04-16T05:10:43.394Z,9.10
2019-04-16T05:11:41.225Z,9.50
2019-04-16T05:12:41.192Z,10.30
2019-04-16T05:13:41.159Z,10.00
2019-04-16T05:14:41.171Z,10.20
2019-04-16T05:15:41.093Z,9.60
2019-04-16T05:16:41.061Z,10.50
2019-04-16T05:17:41.030Z,10.60
2019-04-16T05:18:41.856Z,10.10
2019-04-16T05:19:43.771Z,9.70
2019-04-16T05:20:40.931Z,9.00
2019-04-16T05:21:40.898Z,9.20
2019-04-16T05:22:40.867Z,8.80
2019-04-16T05:23:40.835Z,9.10
2019-04-16T05:24:40.803Z,9.50
2019-04-16T05:25:40.773Z,9.70
2019-04-16T05:26:40.739Z,8.90
2019-04-16T05:27:41.605Z,8.80
2019-04-16T05:28:44.462Z,9.30
2019-04-16T05:29:40.671Z,9.90
2019-04-16T05:30:40.612Z,9.70
2019-04-16T05:31:40.611Z,8.70
2019-04-16T05:32:40.551Z,8.90
2019-04-16T05:33:40.518Z,8.80
2019-04-16T05:34:40.490Z,9.00
2019-04-16T05:35:42.311Z,8.70
2019-04-16T05:36:46.493Z,8.40
2019-04-16T05:37:40.397Z,7.90
2019-04-16T05:38:40.363Z,8.20
2019-04-16T05:39:40.334Z,8.70
2019-04-16T05:40:40.506Z,9.00
2019-04-16T05:41:40.273Z,8.70
2019-04-16T05:42:40.247Z,8.10
2019-04-16T05:43:40.215Z,8.50
2019-04-16T05:44:40.192Z,8.80
2019-04-16T05:45:40.152Z,8.70
2019-04-16T05:46:41.441Z,8.00
2019-04-16T05:47:40.092Z,8.10
2019-04-16T05:48:40.062Z,8.50
2019-04-16T05:49:40.031Z,7.90
2019-04-16T05:50:40.002Z,7.70
2019-04-16T05:51:39.971Z,8.40
2019-04-16T05:52:39.947Z,8.00
2019-04-16T05:53:40.906Z,7.70
2019-04-16T05:54:41.436Z,8.70
2019-04-16T05:55:39.859Z,8.60
2019-04-16T05:56:39.827Z,8.40
2019-04-16T05:57:39.802Z,8.40
2019-04-16T05:58:39.769Z,8.00
2019-04-16T05:59:39.742Z,8.00
2019-04-16T06:00:41.738Z,8.00
2019-04-16T06:01:42.366Z,8.10
2019-04-16T06:02:39.653Z,7.70
2019-04-16T06:16:25.196Z,7.60
2019-04-16T06:17:25.240Z,7.90
2019-04-16T06:18:22.534Z,7.80
2019-04-16T06:19:22.504Z,7.70
2019-04-16T06:20:22.476Z,7.70
2019-04-16T06:21:25.492Z,7.90
2019-04-16T06:22:25.439Z,8.10
2019-04-16T06:23:22.662Z,8.00
2019-04-16T06:24:22.362Z,7.10
2019-04-16T06:25:22.342Z,8.00
2019-04-16T06:26:22.307Z,7.60
2019-04-16T06:27:22.278Z,7.50
2019-04-16T06:28:22.453Z,7.80
2019-04-16T06:29:22.390Z,7.20
2019-04-16T06:31:05.645Z,7.70
2019-04-16T06:32:04.758Z,7.40
2019-04-16T06:33:04.530Z,7.50
2019-04-16T06:34:47.093Z,7.30
2019-04-16T06:35:47.066Z,7.50
2019-04-16T06:36:47.038Z,7.20
2019-04-16T06:37:47.011Z,7.70
2019-04-16T06:38:46.983Z,7.70
2019-04-16T06:39:46.959Z,8.20
2019-04-16T06:40:46.729Z,7.80
2019-04-16T06:41:52.547Z,7.50
2019-04-16T06:42:46.875Z,7.20
2019-04-16T06:43:46.848Z,7.20
2019-04-16T06:44:46.823Z,7.60
2019-04-16T06:45:46.794Z,7.30
2019-04-16T06:46:46.769Z,6.90
2019-04-16T06:47:46.744Z,7.20
2019-04-16T06:48:46.786Z,7.50
2019-04-16T06:49:50.498Z,7.80
2019-04-16T06:50:46.660Z,7.50
2019-04-16T06:51:46.432Z,7.10
2019-04-16T06:52:48.970Z,6.50
2019-04-16T06:53:46.381Z,7.00
2019-04-16T06:54:46.353Z,7.00
2019-04-16T06:55:46.529Z,7.60
2019-04-16T06:56:46.301Z,7.30
2019-04-16T06:57:46.271Z,7.10
2019-04-16T06:58:51.400Z,7.60
2019-04-16T06:59:46.221Z,7.30
2019-04-16T07:00:46.197Z,6.70
2019-04-16T07:01:46.173Z,7.20
2019-04-16T07:03:01.378Z,8.60
2019-04-16T07:03:46.118Z,7.00
2019-04-16T07:04:46.103Z,7.40
2019-04-16T07:05:46.081Z,7.60
2019-04-16T07:06:46.044Z,6.70
2019-04-16T07:07:46.908Z,7.60
2019-04-16T07:08:49.782Z,7.40
2019-04-16T07:09:46.104Z,7.50
2019-04-16T07:10:45.938Z,7.30
2019-04-16T07:11:54.237Z,7.00
2019-04-16T07:12:45.991Z,7.10
2019-04-16T07:13:46.067Z,7.10
2019-04-16T07:15:29.001Z,6.90
2019-04-16T07:17:53.189Z,6.70
2019-04-16T07:18:53.162Z,6.80
2019-04-16T07:19:52.934Z,7.10
2019-04-16T07:22:21.329Z,7.10
2019-04-16T07:23:17.789Z,7.30
2019-04-16T07:24:17.723Z,7.10
2019-04-16T07:25:18.242Z,7.70
2019-04-16T07:26:17.589Z,7.90
2019-04-16T07:27:20.213Z,7.60
2019-04-16T07:28:17.780Z,7.40
2019-04-16T07:29:17.609Z,7.70
2019-04-16T07:30:20.877Z,7.30
2019-04-16T07:31:32.841Z,7.60
2019-04-16T07:32:17.505Z,6.70
2019-04-16T07:33:17.628Z,8.00
2019-04-16T07:34:17.393Z,7.50
2019-04-16T07:35:17.383Z,7.10
2019-04-16T07:36:17.345Z,7.10
2019-04-16T07:37:17.522Z,7.10
2019-04-16T07:38:59.894Z,6.60
2019-04-16T07:39:59.865Z,7.30
2019-04-16T07:40:59.840Z,7.50
2019-04-16T07:42:59.793Z,6.70
2019-04-16T07:43:47.020Z,7.20
2019-04-16T07:44:04.378Z,7.80
2019-04-16T07:44:59.747Z,8.10
2019-04-16T07:45:59.519Z,8.30
2019-04-16T07:46:59.527Z,7.60
2019-04-16T07:47:59.470Z,7.20
2019-04-16T07:48:59.449Z,7.50
2019-04-16T07:50:42.015Z,8.00
2019-04-16T07:51:41.991Z,7.90
2019-04-16T07:52:42.612Z,6.90
2019-04-16T07:53:41.743Z,7.80
2019-04-16T07:54:41.717Z,7.60
2019-04-16T07:55:41.697Z,7.70
2019-04-16T07:56:41.874Z,6.60
2019-04-16T07:57:41.645Z,6.90
2019-04-16T07:58:41.825Z,7.00
2019-04-16T07:59:41.602Z,7.90
2019-04-16T08:00:44.399Z,7.50
2019-04-16T08:01:44.030Z,7.60
2019-04-16T08:02:41.732Z,7.40
2019-04-16T08:05:09.803Z,8.00
2019-04-16T08:06:06.470Z,7.70
2019-04-16T08:07:06.449Z,8.00
2019-04-16T08:08:06.220Z,7.70
2019-04-16T08:09:06.196Z,7.30
2019-04-16T08:10:06.173Z,7.70
2019-04-16T08:11:06.151Z,7.60
2019-04-16T08:12:11.166Z,8.40
2019-04-16T08:13:06.104Z,7.90
2019-04-16T08:14:09.819Z,7.70
2019-04-16T08:15:13.300Z,7.50
2019-04-16T08:16:06.039Z,7.30
2019-04-16T08:17:06.017Z,7.20
2019-04-16T08:18:05.991Z,7.70
2019-04-16T08:19:05.968Z,7.40
2019-04-16T08:20:05.949Z,7.30
2019-04-16T08:21:11.037Z,7.10
2019-04-16T08:22:06.155Z,6.80
2019-04-16T08:23:05.983Z,7.30
2019-04-16T08:24:06.056Z,7.60
2019-04-16T08:25:05.836Z,7.40
2019-04-16T08:26:11.516Z,7.30
2019-04-16T08:27:09.465Z,7.40
2019-04-16T08:28:07.464Z,7.60
2019-04-16T08:29:05.742Z,7.90
2019-04-16T08:30:06.107Z,7.20
2019-04-16T08:31:10.509Z,7.50
2019-04-16T08:32:05.924Z,7.30
2019-04-16T08:33:05.854Z,7.60
2019-04-16T08:34:05.631Z,7.30
2019-04-16T08:35:05.622Z,7.50
2019-04-16T08:36:05.585Z,7.20
2019-04-16T08:37:08.041Z,7.60
2019-04-16T08:38:05.573Z,8.10
2019-04-16T08:39:06.640Z,7.40
2019-04-16T08:40:05.503Z,6.90
2019-04-16T08:41:05.477Z,7.70
2019-04-16T08:42:05.455Z,7.90
2019-04-16T08:43:05.433Z,6.90
2019-04-16T08:44:05.614Z,7.70
2019-04-16T08:45:08.457Z,7.70
2019-04-16T08:46:10.027Z,7.40
2019-04-16T08:47:05.347Z,7.20
2019-04-16T08:48:05.813Z,8.10
2019-04-16T08:49:05.507Z,7.80
2019-04-16T08:50:05.282Z,7.50
2019-04-16T08:51:05.435Z,7.60
2019-04-16T08:52:09.926Z,7.30
2019-04-16T08:53:05.224Z,7.60
2019-04-16T08:54:05.198Z,7.60
2019-04-16T08:55:05.184Z,7.40
2019-04-16T08:56:05.156Z,8.30
2019-04-16T08:57:05.336Z,7.70
2019-04-16T08:58:06.357Z,7.50
2019-04-16T08:59:09.796Z,8.00
2019-04-16T09:00:05.273Z,8.30
2019-04-16T09:01:47.650Z,7.10
2019-04-16T09:02:47.632Z,7.30
2019-04-16T09:03:47.807Z,7.40
2019-04-16T09:04:47.586Z,8.20
2019-04-16T09:05:47.570Z,8.10
2019-04-16T09:06:47.541Z,7.70
2019-04-16T09:07:50.733Z,8.00
2019-04-16T09:09:29.902Z,7.90
2019-04-16T09:10:30.901Z,8.00
2019-04-16T09:11:29.650Z,7.80
2019-04-16T09:12:29.739Z,7.80
2019-04-16T09:13:32.229Z,7.90
2019-04-16T09:14:29.596Z,8.30
2019-04-16T09:15:29.569Z,8.80
2019-04-16T09:16:29.549Z,8.10
2019-04-16T09:17:29.545Z,8.70
2019-04-16T09:18:29.711Z,8.70
2019-04-16T09:19:29.488Z,8.60
2019-04-16T09:20:29.669Z,8.60
2019-04-16T09:21:29.452Z,8.30
2019-04-16T09:22:29.428Z,8.70
2019-04-16T09:23:29.409Z,8.60
2019-04-16T09:24:29.391Z,9.40
2019-04-16T09:25:29.367Z,8.90
2019-04-16T09:26:29.359Z,8.70
2019-04-16T09:27:33.684Z,8.40
2019-04-16T09:28:31.082Z,8.20
2019-04-16T09:29:29.290Z,7.80
2019-04-16T09:30:29.271Z,8.30
2019-04-16T09:31:29.260Z,8.60
2019-04-16T09:32:29.229Z,9.70
2019-04-16T09:33:30.378Z,9.20
2019-04-16T09:34:29.192Z,8.70
2019-04-16T09:35:29.173Z,8.60
2019-04-16T09:36:29.153Z,8.10
2019-04-16T09:37:29.321Z,8.30
2019-04-16T09:38:29.117Z,8.70
2019-04-16T09:39:29.123Z,8.70
2019-04-16T09:40:29.076Z,8.60
2019-04-16T09:41:29.060Z,8.80
2019-04-16T09:42:29.042Z,9.20
2019-04-16T09:43:29.021Z,8.80
2019-04-16T09:44:31.549Z,8.10
2019-04-16T09:45:28.977Z,8.40
2019-04-16T09:46:49.891Z,9.20
2019-04-16T09:47:32.448Z,8.30
2019-04-16T09:48:34.074Z,9.00
2019-04-16T09:49:28.902Z,8.50
2019-04-16T09:50:28.884Z,8.40
2019-04-16T09:51:28.870Z,8.90
2019-04-16T09:52:28.845Z,8.80
2019-04-16T09:53:34.208Z,9.00
2019-04-16T09:54:28.807Z,9.40
2019-04-16T09:55:28.789Z,8.90
2019-04-16T09:56:29.860Z,8.70
2019-04-16T09:57:31.409Z,8.70
2019-04-16T09:58:28.901Z,8.10
2019-04-16T09:59:28.714Z,9.30
2019-04-16T10:00:28.900Z,9.50
2019-04-16T10:01:28.677Z,9.30
2019-04-16T10:02:28.656Z,8.80
2019-04-16T10:03:28.986Z,8.40
2019-04-16T10:04:28.621Z,10.10
2019-04-16T10:05:29.604Z,9.30
2019-04-16T10:06:28.583Z,8.80
2019-04-16T10:07:28.576Z,8.40
2019-04-16T10:08:29.508Z,9.40
2019-04-16T10:09:28.534Z,9.20
2019-04-16T10:10:29.140Z,8.90
2019-04-16T10:11:28.507Z,8.90
2019-04-16T10:12:28.519Z,8.50
2019-04-16T10:13:32.534Z,8.80
2019-04-16T10:14:28.442Z,9.00
2019-04-16T10:15:28.414Z,9.20
2019-04-16T10:16:28.412Z,9.70
2019-04-16T10:17:28.377Z,8.50
2019-04-16T10:18:28.358Z,9.40
2019-04-16T10:19:28.360Z,7.80
2019-04-16T10:20:28.341Z,8.70
2019-04-16T10:21:29.249Z,8.00
2019-04-16T10:22:28.491Z,8.40
2019-04-16T10:23:28.286Z,9.00
2019-04-16T10:24:28.251Z,8.70
2019-04-16T10:25:28.234Z,8.90
2019-04-16T10:26:28.236Z,9.40
2019-04-16T10:27:31.222Z,9.10
2019-04-16T10:28:28.174Z,8.80
2019-04-16T10:29:28.179Z,9.40
2019-04-16T10:30:30.001Z,9.10
2019-04-16T10:31:28.137Z,8.80
2019-04-16T10:32:28.122Z,9.00
2019-04-16T10:33:28.104Z,8.20
2019-04-16T10:34:28.067Z,8.80
2019-04-16T10:35:28.047Z,9.00
2019-04-16T10:36:28.029Z,9.50
2019-04-16T10:37:28.011Z,8.60
2019-04-16T10:38:28.215Z,9.30
2019-04-16T10:39:27.997Z,9.20
2019-04-16T10:40:28.186Z,8.40
2019-04-16T10:41:27.942Z,8.40
2019-04-16T10:42:27.931Z,9.80
2019-04-16T10:43:28.122Z,9.40
2019-04-16T10:44:27.931Z,8.80
2019-04-16T10:45:27.899Z,8.90
2019-04-16T10:46:27.877Z,8.50
2019-04-16T10:47:27.853Z,9.30
2019-04-16T10:48:28.046Z,9.10
2019-04-16T10:49:27.807Z,9.00
2019-04-16T10:50:27.985Z,8.90
2019-04-16T10:51:27.970Z,9.00
2019-04-16T10:52:27.747Z,8.60
2019-04-16T10:53:27.754Z,8.80
2019-04-16T10:54:27.713Z,8.40
2019-04-16T10:55:27.696Z,9.80
2019-04-16T10:56:27.702Z,9.00
2019-04-16T10:57:27.665Z,9.00
2019-04-16T10:58:27.653Z,9.50
2019-04-16T10:59:27.626Z,9.60
2019-04-16T11:00:27.612Z,9.10
2019-04-16T11:01:30.531Z,9.60
2019-04-16T11:02:28.839Z,9.70
2019-04-16T11:03:28.778Z,9.70
2019-04-16T11:04:27.548Z,10.00
2019-04-16T11:05:27.572Z,9.40
2019-04-16T11:06:27.533Z,10.00
2019-04-16T11:07:27.514Z,9.70
2019-04-16T11:08:27.486Z,10.90
2019-04-16T11:09:27.455Z,10.00
2019-04-16T11:10:27.436Z,9.00
2019-04-16T11:11:27.451Z,9.40
2019-04-16T11:12:27.440Z,9.70
2019-04-16T11:13:27.409Z,9.30
2019-04-16T11:14:27.414Z,9.80
2019-04-16T11:15:27.355Z,9.60
2019-04-16T11:16:27.340Z,9.30
2019-04-16T11:17:27.350Z,9.80
2019-04-16T11:18:27.312Z,10.20
2019-04-16T11:19:27.291Z,9.80
2019-04-16T11:20:27.274Z,9.70
2019-04-16T11:21:27.249Z,9.20
2019-04-16T11:22:27.246Z,8.30
2019-04-16T11:23:27.250Z,9.20
2019-04-16T11:24:27.213Z,8.50
2019-04-16T11:25:27.201Z,9.50
2019-04-16T11:26:27.159Z,9.00
2019-04-16T11:27:27.142Z,9.00
2019-04-16T11:28:27.125Z,9.30
2019-04-16T11:29:27.341Z,8.50
2019-04-16T11:30:27.105Z,9.10
2019-04-16T11:31:27.075Z,8.90
2019-04-16T11:32:27.049Z,9.30
2019-04-16T11:33:27.653Z,9.20
2019-04-16T11:34:27.040Z,8.30
2019-04-16T11:35:27.028Z,9.60
2019-04-16T11:36:30.539Z,9.00
2019-04-16T11:37:26.962Z,9.10
2019-04-16T11:38:26.960Z,8.70
2019-04-16T11:39:26.949Z,8.60
2019-04-16T11:40:26.905Z,8.20
2019-04-16T11:41:26.907Z,8.60
2019-04-16T11:42:26.886Z,8.80
2019-04-16T11:43:26.878Z,8.60
2019-04-16T11:44:26.843Z,8.80
2019-04-16T11:45:26.836Z,8.20
2019-04-16T11:46:26.814Z,7.80
2019-04-16T11:47:28.141Z,7.90
2019-04-16T11:48:26.804Z,7.70
2019-04-16T11:49:26.784Z,9.40
2019-04-16T11:50:26.734Z,9.10
2019-04-16T11:51:26.748Z,8.70
2019-04-16T11:52:26.691Z,7.80
2019-04-16T11:53:26.672Z,9.60
2019-04-16T11:54:26.684Z,9.00
2019-04-16T11:55:26.640Z,8.30
2019-04-16T11:56:26.638Z,7.90
2019-04-16T11:57:29.377Z,8.50
2019-04-16T11:58:26.585Z,8.80
2019-04-16T11:59:26.571Z,8.50
2019-04-16T12:00:26.599Z,8.70
2019-04-16T12:01:26.560Z,8.60
2019-04-16T12:02:26.630Z,9.40
2019-04-16T12:03:26.510Z,8.60
2019-04-16T12:04:26.483Z,9.50
2019-04-16T12:05:26.492Z,8.70
2019-04-16T12:06:28.383Z,8.30
2019-04-16T12:07:26.430Z,8.80
2019-04-16T12:08:26.411Z,9.40
2019-04-16T12:09:26.394Z,9.50
2019-04-16T12:10:26.422Z,9.30
2019-04-16T12:11:26.358Z,9.10
2019-04-16T12:12:26.343Z,9.20
2019-04-16T12:13:26.335Z,9.50
2019-04-16T12:14:30.962Z,9.00
2019-04-16T12:15:26.283Z,8.70
2019-04-16T12:16:26.305Z,9.60
2019-04-16T12:17:26.253Z,8.50
2019-04-16T12:18:26.239Z,9.60
2019-04-16T12:19:26.252Z,9.20
2019-04-16T12:20:26.216Z,10.30
2019-04-16T12:21:26.194Z,9.40
2019-04-16T12:22:26.170Z,9.50
2019-04-16T12:23:26.189Z,9.60
2019-04-16T12:24:26.141Z,9.20
2019-04-16T12:25:26.686Z,9.40
2019-04-16T12:26:26.088Z,8.90
2019-04-16T12:27:26.068Z,9.80
2019-04-16T12:28:26.078Z,9.20
2019-04-16T12:29:26.043Z,8.70
2019-04-16T12:30:26.147Z,9.70
2019-04-16T12:31:26.014Z,8.50
2019-04-16T12:32:27.002Z,7.90
2019-04-16T12:33:26.054Z,8.30
2019-04-16T12:34:25.956Z,9.60
2019-04-16T12:35:25.972Z,11.20
2019-04-16T12:36:25.910Z,10.50
2019-04-16T12:37:25.891Z,8.70
2019-04-16T12:38:25.912Z,9.40
2019-04-16T12:39:25.869Z,10.20
2019-04-16T12:40:25.877Z,9.30
2019-04-16T12:41:25.850Z,9.60
2019-04-16T12:42:25.835Z,10.00
2019-04-16T12:43:25.818Z,8.90
2019-04-16T12:44:25.811Z,8.00
2019-04-16T12:45:25.795Z,8.10
2019-04-16T12:46:25.777Z,7.20
2019-04-16T12:47:25.729Z,7.50
2019-04-16T12:48:25.759Z,7.70
2019-04-16T12:49:25.718Z,7.90
2019-04-16T12:50:25.670Z,7.20
2019-04-16T12:51:25.688Z,7.90
2019-04-16T12:52:25.665Z,7.40
2019-04-16T12:53:25.656Z,7.20
2019-04-16T12:54:26.266Z,7.50
2019-04-16T12:55:25.571Z,7.60
2019-04-16T12:56:25.548Z,7.60
2019-04-16T12:57:25.579Z,7.40
2019-04-16T12:58:25.824Z,7.60
2019-04-16T12:59:25.500Z,7.50
2019-04-16T13:00:28.549Z,7.20
2019-04-16T13:01:25.459Z,6.70
2019-04-16T13:02:25.440Z,7.20
2019-04-16T13:03:25.423Z,7.40
2019-04-16T13:04:25.414Z,7.50
2019-04-16T13:05:25.388Z,7.00
2019-04-16T13:06:26.969Z,8.10
2019-04-16T13:07:25.351Z,7.80
2019-04-16T13:08:25.334Z,7.60
2019-04-16T13:09:25.322Z,7.70
2019-04-16T13:10:25.302Z,7.10
2019-04-16T13:11:25.284Z,8.30
2019-04-16T13:12:25.264Z,7.00
2019-04-16T13:13:25.258Z,7.60
2019-04-16T13:14:25.227Z,7.00
2019-04-16T13:15:25.207Z,7.80
2019-04-16T13:16:25.196Z,8.10
2019-04-16T13:17:25.171Z,7.70
2019-04-16T13:18:25.230Z,8.10
2019-04-16T13:19:25.142Z,7.90
2019-04-16T13:20:29.171Z,8.50
2019-04-16T13:21:25.097Z,8.00
2019-04-16T13:22:25.079Z,8.40
2019-04-16T13:23:25.065Z,7.90
2019-04-16T13:24:25.044Z,7.10
2019-04-16T13:25:25.023Z,7.80
2019-04-16T13:26:25.010Z,7.50
2019-04-16T13:27:24.989Z,7.50
2019-04-16T13:28:24.974Z,8.00
2019-04-16T13:29:28.933Z,8.10
2019-04-16T13:30:24.937Z,7.90
2019-04-16T13:31:24.912Z,8.00
2019-04-16T13:32:27.663Z,7.90
2019-04-16T13:33:24.876Z,9.20
2019-04-16T13:34:24.858Z,7.60
2019-04-16T13:35:24.846Z,8.40
2019-04-16T13:36:27.814Z,7.90
2019-04-16T13:37:24.806Z,8.40
2019-04-16T13:38:24.786Z,8.60